createdAt,value
2018-06-28T00:00:00.846Z,0
2018-06-28T00:01:00.841Z,0
2018-06-28T00:02:00.573Z,0
2018-06-28T00:03:00.826Z,0
2018-06-28T00:04:00.819Z,0
2018-06-28T00:05:00.810Z,0
2018-06-28T00:06:00.546Z,0
2018-06-28T00:07:00.541Z,0
2018-06-28T00:08:00.787Z,0
2018-06-28T00:09:01.047Z,0
2018-06-28T00:10:00.521Z,0
2018-06-28T00:11:00.768Z,0
2018-06-28T00:12:00.505Z,0
2018-06-28T00:13:00.755Z,0
2018-06-28T00:14:00.741Z,0
2018-06-28T00:15:00.739Z,0
2018-06-28T00:16:00.727Z,0
2018-06-28T00:17:00.715Z,0
2018-06-28T00:18:00.707Z,0
2018-06-28T00:19:00.708Z,0
2018-06-28T00:20:00.691Z,0
2018-06-28T00:21:00.687Z,0
2018-06-28T00:22:00.165Z,0
2018-06-28T00:23:00.675Z,0
2018-06-28T00:24:00.668Z,0
2018-06-28T00:25:00.656Z,0
2018-06-28T00:26:00.646Z,0
2018-06-28T00:27:00.378Z,0
2018-06-28T00:28:00.368Z,0
2018-06-28T00:29:00.622Z,0
2018-06-28T00:30:00.611Z,0
2018-06-28T00:31:00.604Z,0
2018-06-28T00:32:00.341Z,0
2018-06-28T00:33:00.338Z,0
2018-06-28T00:34:00.589Z,0
2018-06-28T00:35:00.318Z,0
2018-06-28T00:36:00.307Z,0
2018-06-28T00:37:00.566Z,0
2018-06-28T00:38:00.547Z,0
2018-06-28T00:39:00.278Z,0
2018-06-28T00:40:00.526Z,0
2018-06-28T00:41:00.263Z,0
2018-06-28T00:42:00.516Z,0
2018-06-28T00:43:00.258Z,0
2018-06-28T00:44:00.240Z,0
2018-06-28T00:45:00.493Z,0
2018-06-28T00:46:00.238Z,0
2018-06-28T00:47:00.488Z,0
2018-06-28T00:48:00.467Z,0
2018-06-28T00:49:00.459Z,0
2018-06-28T00:50:00.445Z,0
2018-06-28T00:51:00.186Z,0
2018-06-28T00:52:00.428Z,0
2018-06-28T00:53:00.167Z,0
2018-06-28T00:54:00.415Z,0
2018-06-28T00:54:59.892Z,0
2018-06-28T00:55:59.890Z,0
2018-06-28T00:57:00.387Z,0
2018-06-28T00:58:00.391Z,0
2018-06-28T00:59:00.373Z,0
2018-06-28T01:00:00.367Z,0
2018-06-28T01:01:00.360Z,0
2018-06-28T01:01:59.836Z,0
2018-06-28T01:03:00.344Z,0
2018-06-28T01:04:00.075Z,0
2018-06-28T01:04:59.805Z,0
2018-06-28T01:05:59.799Z,0
2018-06-28T01:07:00.059Z,0
2018-06-28T01:08:00.302Z,0
2018-06-28T01:09:00.036Z,0
2018-06-28T01:10:00.031Z,0
2018-06-28T01:10:59.767Z,0
2018-06-28T01:12:00.016Z,0
2018-06-28T01:13:00.000Z,0
2018-06-28T01:13:59.988Z,0
2018-06-28T01:15:00.248Z,0
2018-06-28T01:15:59.973Z,0
2018-06-28T01:17:00.221Z,0
2018-06-28T01:18:00.217Z,0
2018-06-28T01:19:00.208Z,0
2018-06-28T01:20:00.198Z,0
2018-06-28T01:21:00.192Z,0
2018-06-28T01:21:59.921Z,0
2018-06-28T01:23:00.189Z,0
2018-06-28T01:23:59.907Z,0
2018-06-28T01:25:00.153Z,0
2018-06-28T01:26:00.143Z,0
2018-06-28T01:27:00.142Z,0
2018-06-28T01:27:59.875Z,0
2018-06-28T01:29:00.128Z,0
2018-06-28T01:29:59.851Z,0
2018-06-28T01:31:00.106Z,0
2018-06-28T01:32:00.099Z,0
2018-06-28T01:33:00.089Z,0
2018-06-28T01:34:00.075Z,0
2018-06-28T01:35:00.068Z,0
2018-06-28T01:36:00.055Z,0
2018-06-28T01:37:00.052Z,0
2018-06-28T01:38:00.046Z,0
2018-06-28T01:39:00.035Z,0
2018-06-28T01:39:59.768Z,0
2018-06-28T01:40:59.500Z,0
2018-06-28T01:42:00.011Z,0
2018-06-28T01:42:59.742Z,0
2018-06-28T01:43:59.991Z,0
2018-06-28T01:44:59.978Z,0
2018-06-28T01:46:00.028Z,0
2018-06-28T01:46:59.837Z,0
2018-06-28T01:47:59.437Z,0
2018-06-28T01:48:59.944Z,0
2018-06-28T01:49:59.683Z,0
2018-06-28T01:50:59.940Z,0
2018-06-28T01:51:59.672Z,0
2018-06-28T01:53:00.104Z,0
2018-06-28T01:53:59.903Z,0
2018-06-28T01:54:59.634Z,0
2018-06-28T01:55:59.889Z,0
2018-06-28T01:56:59.621Z,0
2018-06-28T01:57:59.871Z,0
2018-06-28T01:58:59.862Z,0
2018-06-28T01:59:59.590Z,0
2018-06-28T02:00:59.587Z,0
2018-06-28T02:01:59.900Z,0
2018-06-28T02:02:59.569Z,0
2018-06-28T02:03:59.303Z,0
2018-06-28T02:04:59.810Z,0
2018-06-28T02:05:59.802Z,0
2018-06-28T02:06:59.805Z,0
2018-06-28T02:07:59.781Z,0
2018-06-28T02:08:59.573Z,0
2018-06-28T02:09:59.758Z,0
2018-06-28T02:10:59.763Z,0
2018-06-28T02:11:59.742Z,0
2018-06-28T02:12:59.727Z,0
2018-06-28T02:13:59.731Z,0
2018-06-28T02:14:59.732Z,0
2018-06-28T02:15:59.448Z,0
2018-06-28T02:16:59.692Z,0
2018-06-28T02:17:59.172Z,0
2018-06-28T02:18:59.679Z,0
2018-06-28T02:19:59.669Z,4
2018-06-28T02:20:59.152Z,4
2018-06-28T02:21:59.138Z,4
2018-06-28T02:22:59.389Z,0
2018-06-28T02:23:59.634Z,0
2018-06-28T02:24:59.368Z,4
2018-06-28T02:25:59.616Z,4
2018-06-28T02:26:59.604Z,4
2018-06-28T02:27:59.081Z,4
2018-06-28T02:28:59.330Z,4
2018-06-28T02:29:59.370Z,8
2018-06-28T02:30:59.312Z,8
2018-06-28T02:31:59.560Z,8
2018-06-28T02:32:59.565Z,12
2018-06-28T02:33:59.539Z,12
2018-06-28T02:34:59.549Z,12
2018-06-28T02:35:59.277Z,16
2018-06-28T02:36:59.514Z,16
2018-06-28T02:37:59.260Z,20
2018-06-28T02:38:59.506Z,20
2018-06-28T02:39:59.231Z,20
2018-06-28T02:40:59.479Z,24
2018-06-28T02:41:59.210Z,28
2018-06-28T02:42:59.458Z,32
2018-06-28T02:43:59.455Z,36
2018-06-28T02:44:59.443Z,40
2018-06-28T02:45:59.430Z,44
2018-06-28T02:46:59.429Z,48
2018-06-28T02:47:59.158Z,52
2018-06-28T02:48:59.415Z,56
2018-06-28T02:49:59.142Z,64
2018-06-28T02:50:59.129Z,68
2018-06-28T02:51:59.181Z,68
2018-06-28T02:52:59.107Z,80
2018-06-28T02:53:59.123Z,84
2018-06-28T02:54:59.090Z,92
2018-06-28T02:55:59.090Z,100
2018-06-28T02:56:59.071Z,108
2018-06-28T02:57:59.062Z,112
2018-06-28T02:58:59.328Z,124
2018-06-28T02:59:59.323Z,132
2018-06-28T03:00:59.307Z,140
2018-06-28T03:01:59.032Z,152
2018-06-28T03:02:59.276Z,164
2018-06-28T03:03:59.268Z,172
2018-06-28T03:04:58.994Z,188
2018-06-28T03:05:59.247Z,208
2018-06-28T03:06:59.010Z,224
2018-06-28T03:07:59.228Z,248
2018-06-28T03:08:58.965Z,268
2018-06-28T03:09:59.216Z,292
2018-06-28T03:10:59.198Z,316
2018-06-28T03:11:59.208Z,340
2018-06-28T03:12:59.183Z,364
2018-06-28T03:13:59.180Z,388
2018-06-28T03:14:58.907Z,408
2018-06-28T03:15:59.164Z,420
2018-06-28T03:16:59.159Z,436
2018-06-28T03:17:59.140Z,452
2018-06-28T03:18:59.129Z,464
2018-06-28T03:19:58.861Z,484
2018-06-28T03:20:58.847Z,500
2018-06-28T03:21:59.104Z,516
2018-06-28T03:22:58.576Z,532
2018-06-28T03:23:59.079Z,548
2018-06-28T03:24:58.809Z,564
2018-06-28T03:25:59.064Z,576
2018-06-28T03:26:58.790Z,596
2018-06-28T03:27:58.781Z,612
2018-06-28T03:28:58.515Z,632
2018-06-28T03:29:59.023Z,652
2018-06-28T03:30:59.475Z,672
2018-06-28T03:31:58.753Z,696
2018-06-28T03:32:58.744Z,720
2018-06-28T03:33:58.983Z,736
2018-06-28T03:34:58.718Z,756
2018-06-28T03:35:58.710Z,772
2018-06-28T03:36:58.703Z,792
2018-06-28T03:37:59.847Z,824
2018-06-28T03:38:58.421Z,856
2018-06-28T03:39:58.413Z,888
2018-06-28T03:40:58.920Z,920
2018-06-28T03:41:58.651Z,948
2018-06-28T03:42:58.644Z,984
2018-06-28T03:43:58.889Z,1024
2018-06-28T03:44:58.883Z,1064
2018-06-28T03:45:59.189Z,1100
2018-06-28T03:46:58.869Z,1124
2018-06-28T03:47:58.859Z,1152
2018-06-28T03:48:58.849Z,1184
2018-06-28T03:49:58.847Z,1216
2018-06-28T03:50:58.568Z,1260
2018-06-28T03:51:58.820Z,1304
2018-06-28T03:52:58.807Z,1328
2018-06-28T03:53:58.799Z,1344
2018-06-28T03:54:58.531Z,1348
2018-06-28T03:55:58.524Z,1348
2018-06-28T03:56:58.518Z,1352
2018-06-28T03:57:58.768Z,1340
2018-06-28T03:58:58.491Z,1336
2018-06-28T03:59:58.763Z,1328
2018-06-28T04:00:58.217Z,1308
2018-06-28T04:01:58.208Z,1304
2018-06-28T04:02:58.717Z,1300
2018-06-28T04:03:58.452Z,1304
2018-06-28T04:04:58.440Z,1312
2018-06-28T04:05:58.688Z,1324
2018-06-28T04:06:58.428Z,1348
2018-06-28T04:07:58.408Z,1372
2018-06-28T04:08:58.407Z,1392
2018-06-28T04:09:58.131Z,1436
2018-06-28T04:10:58.643Z,1504
2018-06-28T04:11:58.376Z,1572
2018-06-28T04:12:58.621Z,1648
2018-06-28T04:13:58.625Z,1720
2018-06-28T04:14:58.355Z,1788
2018-06-28T04:15:58.343Z,1868
2018-06-28T04:16:58.076Z,1972
2018-06-28T04:17:58.585Z,2088
2018-06-28T04:18:58.573Z,2200
2018-06-28T04:19:58.573Z,2268
2018-06-28T04:20:58.295Z,2284
2018-06-28T04:21:58.282Z,2376
2018-06-28T04:22:58.021Z,2540
2018-06-28T04:23:58.525Z,2532
2018-06-28T04:24:58.513Z,2476
2018-06-28T04:25:58.259Z,2456
2018-06-28T04:26:58.505Z,2488
2018-06-28T04:27:58.487Z,2568
2018-06-28T04:28:58.486Z,2684
2018-06-28T04:29:58.211Z,2784
2018-06-28T04:30:58.205Z,2872
2018-06-28T04:31:58.462Z,2884
2018-06-28T04:32:58.185Z,2852
2018-06-28T04:33:58.444Z,2820
2018-06-28T04:34:58.423Z,2812
2018-06-28T04:35:58.160Z,2812
2018-06-28T04:36:58.417Z,2800
2018-06-28T04:37:58.419Z,2792
2018-06-28T04:38:58.133Z,2796
2018-06-28T04:39:58.120Z,2820
2018-06-28T04:40:58.320Z,2860
2018-06-28T04:41:58.106Z,2920
2018-06-28T04:42:58.102Z,3000
2018-06-28T04:43:58.352Z,3132
2018-06-28T04:44:58.084Z,3304
2018-06-28T04:45:58.331Z,3548
2018-06-28T04:46:58.065Z,3852
2018-06-28T04:47:58.310Z,4176
2018-06-28T04:48:57.791Z,4536
2018-06-28T04:49:58.300Z,4904
2018-06-28T04:50:58.292Z,5252
2018-06-28T04:51:58.025Z,5596
2018-06-28T04:52:58.277Z,5884
2018-06-28T04:53:58.008Z,6196
2018-06-28T04:54:58.256Z,6552
2018-06-28T04:55:58.259Z,6804
2018-06-28T04:56:57.993Z,6932
2018-06-28T04:57:58.236Z,7012
2018-06-28T04:58:58.351Z,7048
2018-06-28T04:59:58.232Z,7048
2018-06-28T05:00:58.211Z,7040
2018-06-28T05:01:58.201Z,6980
2018-06-28T05:02:58.199Z,6784
2018-06-28T05:03:58.193Z,6620
2018-06-28T05:04:58.184Z,6440
2018-06-28T05:05:58.174Z,6336
2018-06-28T05:06:58.204Z,6348
2018-06-28T05:07:58.156Z,6492
2018-06-28T05:08:58.158Z,6756
2018-06-28T05:09:58.140Z,6740
2018-06-28T05:10:57.624Z,6752
2018-06-28T05:11:58.128Z,6688
2018-06-28T05:12:58.123Z,6672
2018-06-28T05:13:58.119Z,6704
2018-06-28T05:14:58.114Z,6692
2018-06-28T05:15:57.841Z,6636
2018-06-28T05:16:58.096Z,6580
2018-06-28T05:17:58.090Z,6468
2018-06-28T05:18:58.076Z,6424
2018-06-28T05:19:58.072Z,6440
2018-06-28T05:20:57.550Z,6312
2018-06-28T05:21:57.540Z,6172
2018-06-28T05:22:58.141Z,5964
2018-06-28T05:23:57.531Z,5716
2018-06-28T05:24:58.038Z,5452
2018-06-28T05:25:58.042Z,5236
2018-06-28T05:26:58.027Z,5108
2018-06-28T05:27:58.028Z,5076
2018-06-28T05:28:57.762Z,5116
2018-06-28T05:29:57.753Z,5204
2018-06-28T05:30:57.738Z,5332
2018-06-28T05:31:57.738Z,5560
2018-06-28T05:32:58.109Z,5884
2018-06-28T05:33:57.723Z,6284
2018-06-28T05:34:58.263Z,6740
2018-06-28T05:35:57.455Z,7028
2018-06-28T05:36:57.708Z,7056
2018-06-28T05:37:57.698Z,6820
2018-06-28T05:38:57.956Z,6492
2018-06-28T05:39:57.689Z,6156
2018-06-28T05:40:57.690Z,5836
2018-06-28T05:41:57.935Z,5628
2018-06-28T05:42:57.929Z,5596
2018-06-28T05:43:57.920Z,5828
2018-06-28T05:44:57.917Z,6000
2018-06-28T05:45:57.907Z,6524
2018-06-28T05:46:57.392Z,6828
2018-06-28T05:47:57.907Z,6824
2018-06-28T05:48:57.373Z,6912
2018-06-28T05:49:57.369Z,6536
2018-06-28T05:50:57.891Z,6320
2018-06-28T05:51:57.875Z,5860
2018-06-28T05:52:57.860Z,5564
2018-06-28T05:53:57.858Z,5216
2018-06-28T05:54:57.851Z,5096
2018-06-28T05:55:57.854Z,4672
2018-06-28T05:56:57.846Z,4532
2018-06-28T05:57:57.881Z,4896
2018-06-28T05:58:57.836Z,5452
2018-06-28T05:59:57.832Z,5416
2018-06-28T06:00:57.826Z,5336
2018-06-28T06:01:57.558Z,5084
2018-06-28T06:02:57.805Z,5128
2018-06-28T06:03:57.803Z,5564
2018-06-28T06:04:57.542Z,5344
2018-06-28T06:05:57.568Z,4880
2018-06-28T06:06:57.531Z,4924
2018-06-28T06:07:57.521Z,5332
2018-06-28T06:08:57.516Z,5328
2018-06-28T06:09:57.775Z,5008
2018-06-28T06:10:57.570Z,4728
2018-06-28T06:11:57.562Z,5248
2018-06-28T06:12:57.248Z,5756
2018-06-28T06:13:57.756Z,6032
2018-06-28T06:14:57.738Z,6564
2018-06-28T06:15:57.480Z,6864
2018-06-28T06:16:57.474Z,6808
2018-06-28T06:17:57.209Z,6608
2018-06-28T06:18:57.471Z,6616
2018-06-28T06:19:57.512Z,6440
2018-06-28T06:20:57.706Z,6552
2018-06-28T06:21:57.728Z,6688
2018-06-28T06:22:57.696Z,6872
2018-06-28T06:23:57.695Z,7140
2018-06-28T06:24:57.694Z,7392
2018-06-28T06:25:57.683Z,8052
2018-06-28T06:26:57.675Z,8828
2018-06-28T06:27:57.688Z,9492
2018-06-28T06:28:57.409Z,10820
2018-06-28T06:29:57.404Z,11704
2018-06-28T06:30:57.395Z,12124
2018-06-28T06:31:57.138Z,12300
2018-06-28T06:32:57.692Z,12040
2018-06-28T06:33:57.644Z,11564
2018-06-28T06:34:57.634Z,10952
2018-06-28T06:35:57.377Z,10244
2018-06-28T06:36:57.630Z,9504
2018-06-28T06:37:57.368Z,8836
2018-06-28T06:38:57.621Z,8272
2018-06-28T06:39:57.351Z,7812
2018-06-28T06:40:57.608Z,7440
2018-06-28T06:41:57.094Z,7124
2018-06-28T06:42:57.342Z,6932
2018-06-28T06:43:57.078Z,6912
2018-06-28T06:44:57.337Z,7464
2018-06-28T06:45:57.590Z,7056
2018-06-28T06:46:57.324Z,7092
2018-06-28T06:47:57.593Z,7324
2018-06-28T06:48:57.704Z,7776
2018-06-28T06:49:57.321Z,9124
2018-06-28T06:50:57.378Z,11820
2018-06-28T06:51:57.308Z,10704
2018-06-28T06:52:57.300Z,11368
2018-06-28T06:53:57.288Z,20416
2018-06-28T06:54:57.290Z,26240
2018-06-28T06:55:57.292Z,17824
2018-06-28T06:56:57.283Z,17504
2018-06-28T06:57:57.536Z,19136
2018-06-28T06:58:57.016Z,23104
2018-06-28T06:59:57.262Z,21888
2018-06-28T07:00:57.007Z,18592
2018-06-28T07:01:57.516Z,19776
2018-06-28T07:02:57.257Z,16704
2018-06-28T07:03:57.251Z,18784
2018-06-28T07:04:57.250Z,34208
2018-06-28T07:05:57.503Z,46720
2018-06-28T07:06:57.244Z,44544
2018-06-28T07:07:57.501Z,48896
2018-06-28T07:08:57.231Z,45536
2018-06-28T07:09:57.487Z,48448
2018-06-28T07:10:57.235Z,43744
2018-06-28T07:11:57.510Z,40384
2018-06-28T07:12:57.489Z,36576
2018-06-28T07:13:57.616Z,30496
2018-06-28T07:14:57.219Z,23552
2018-06-28T07:15:57.567Z,40512
2018-06-28T07:16:56.964Z,33536
2018-06-28T07:17:57.475Z,26240
2018-06-28T07:18:57.478Z,37152
2018-06-28T07:19:57.472Z,25536
2018-06-28T07:20:57.480Z,23904
2018-06-28T07:21:57.220Z,30528
2018-06-28T07:22:57.704Z,51872
2018-06-28T07:23:57.484Z,51072
2018-06-28T07:24:57.491Z,49152
2018-06-28T07:25:57.655Z,50592
2018-06-28T07:26:57.480Z,43680
2018-06-28T07:27:57.478Z,20928
2018-06-28T07:28:57.481Z,19488
2018-06-28T07:29:57.230Z,32416
2018-06-28T07:30:57.225Z,57280
2018-06-28T07:31:57.488Z,60256
2018-06-28T07:32:57.507Z,58432
2018-06-28T07:33:57.488Z,60288
2018-06-28T07:34:57.253Z,52064
2018-06-28T07:35:57.531Z,27456
2018-06-28T07:36:57.497Z,23456
2018-06-28T07:37:57.487Z,35808
2018-06-28T07:38:57.490Z,21536
2018-06-28T07:39:57.494Z,23552
2018-06-28T07:40:57.248Z,21664
2018-06-28T07:41:57.692Z,36448
2018-06-28T07:42:57.507Z,23136
2018-06-28T07:43:57.241Z,10952
2018-06-28T07:44:56.988Z,24768
2018-06-28T07:45:57.250Z,62112
2018-06-28T07:46:57.477Z,26816
2018-06-28T07:47:57.254Z,18624
2018-06-28T07:48:57.513Z,20832
2018-06-28T07:49:57.075Z,14916
2018-06-28T07:50:57.253Z,26496
2018-06-28T07:51:57.256Z,22592
2018-06-28T07:52:57.258Z,17184
2018-06-28T07:53:56.999Z,16864
2018-06-28T07:54:57.518Z,17376
2018-06-28T07:55:56.746Z,16120
2018-06-28T07:56:57.520Z,17088
2018-06-28T07:57:57.266Z,17472
2018-06-28T07:58:57.271Z,17344
2018-06-28T07:59:57.264Z,17184
2018-06-28T08:00:57.525Z,17056
2018-06-28T08:01:57.275Z,17088
2018-06-28T08:02:57.267Z,16800
2018-06-28T08:03:57.010Z,16800
2018-06-28T08:04:57.527Z,16768
2018-06-28T08:05:57.528Z,17120
2018-06-28T08:06:57.272Z,17344
2018-06-28T08:07:57.531Z,17120
2018-06-28T08:08:57.519Z,16864
2018-06-28T08:09:57.502Z,16960
2018-06-28T08:10:57.525Z,16084
2018-06-28T08:11:57.525Z,17152
2018-06-28T08:12:57.521Z,16224
2018-06-28T08:13:57.266Z,15660
2018-06-28T08:14:57.579Z,15272
2018-06-28T08:15:57.527Z,14556
2018-06-28T08:16:57.264Z,14012
2018-06-28T08:17:57.521Z,16640
2018-06-28T08:18:57.530Z,17824
2018-06-28T08:19:57.007Z,15784
2018-06-28T08:20:57.265Z,17696
2018-06-28T08:21:57.519Z,16864
2018-06-28T08:22:57.521Z,16236
2018-06-28T08:23:57.268Z,14736
2018-06-28T08:24:57.267Z,14212
2018-06-28T08:25:57.529Z,15132
2018-06-28T08:26:57.731Z,16704
2018-06-28T08:27:57.526Z,16836
2018-06-28T08:28:57.262Z,17824
2018-06-28T08:29:57.265Z,19680
2018-06-28T08:30:57.283Z,17952
2018-06-28T08:31:57.260Z,12920
2018-06-28T08:32:57.006Z,9704
2018-06-28T08:33:57.520Z,9300
2018-06-28T08:34:56.749Z,10624
2018-06-28T08:35:57.834Z,10108
2018-06-28T08:36:57.264Z,10084
2018-06-28T08:37:57.523Z,10384
2018-06-28T08:38:57.268Z,11436
2018-06-28T08:39:57.524Z,11572
2018-06-28T08:40:57.525Z,12260
2018-06-28T08:41:57.268Z,13028
2018-06-28T08:42:57.261Z,13292
2018-06-28T08:43:57.517Z,17632
2018-06-28T08:44:57.523Z,17440
2018-06-28T08:45:57.004Z,16200
2018-06-28T08:46:57.260Z,16252
2018-06-28T08:47:57.260Z,15956
2018-06-28T08:48:57.650Z,16052
2018-06-28T08:49:57.256Z,15776
2018-06-28T08:50:57.257Z,15248
2018-06-28T08:51:57.511Z,14348
2018-06-28T08:52:57.509Z,12580
2018-06-28T08:53:57.513Z,12092
2018-06-28T08:54:57.264Z,12212
2018-06-28T08:55:57.518Z,11820
2018-06-28T08:56:57.512Z,14540
2018-06-28T08:57:58.150Z,14744
2018-06-28T08:58:57.273Z,14424
2018-06-28T08:59:57.002Z,14052
2018-06-28T09:00:57.000Z,12936
2018-06-28T09:01:57.509Z,12712
2018-06-28T09:02:57.253Z,14580
2018-06-28T09:03:57.507Z,13888
2018-06-28T09:04:57.511Z,11624
2018-06-28T09:05:57.357Z,12920
2018-06-28T09:06:57.511Z,16512
2018-06-28T09:07:57.511Z,16168
2018-06-28T09:08:57.506Z,17184
2018-06-28T09:09:57.508Z,17376
2018-06-28T09:10:57.246Z,17664
2018-06-28T09:11:56.992Z,17600
2018-06-28T09:12:57.509Z,17440
2018-06-28T09:13:57.506Z,17248
2018-06-28T09:14:57.512Z,16832
2018-06-28T09:15:57.514Z,16364
2018-06-28T09:16:57.505Z,16116
2018-06-28T09:17:57.243Z,15864
2018-06-28T09:18:57.497Z,15784
2018-06-28T09:19:56.988Z,15692
2018-06-28T09:20:56.983Z,15716
2018-06-28T09:21:57.246Z,15748
2018-06-28T09:22:57.450Z,15584
2018-06-28T09:23:57.242Z,14912
2018-06-28T09:24:57.506Z,14808
2018-06-28T09:25:57.248Z,15096
2018-06-28T09:26:57.244Z,16148
2018-06-28T09:27:57.139Z,16092
2018-06-28T09:28:56.985Z,15384
2018-06-28T09:29:57.262Z,14492
2018-06-28T09:30:57.295Z,13844
2018-06-28T09:31:57.499Z,12940
2018-06-28T09:32:57.502Z,12132
2018-06-28T09:33:57.517Z,11788
2018-06-28T09:34:57.508Z,11880
2018-06-28T09:35:57.327Z,11816
2018-06-28T09:36:57.496Z,11696
2018-06-28T09:37:57.246Z,11900
2018-06-28T09:38:57.238Z,11896
2018-06-28T09:39:57.513Z,11828
2018-06-28T09:40:57.238Z,12252
2018-06-28T09:41:57.491Z,12996
2018-06-28T09:42:57.494Z,14172
2018-06-28T09:43:56.983Z,15892
2018-06-28T09:44:57.298Z,16640
2018-06-28T09:45:57.247Z,17056
2018-06-28T09:46:57.240Z,17344
2018-06-28T09:47:57.485Z,17728
2018-06-28T09:48:57.506Z,17184
2018-06-28T09:49:57.496Z,16512
2018-06-28T09:50:57.489Z,15856
2018-06-28T09:51:57.491Z,16288
2018-06-28T09:52:57.242Z,16256
2018-06-28T09:53:57.488Z,16320
2018-06-28T09:54:57.344Z,16704
2018-06-28T09:55:57.491Z,17024
2018-06-28T09:56:57.490Z,17440
2018-06-28T09:57:57.496Z,17632
2018-06-28T09:58:57.231Z,17440
2018-06-28T09:59:57.497Z,17952
2018-06-28T10:00:57.495Z,17920
2018-06-28T10:01:57.496Z,17600
2018-06-28T10:02:57.240Z,17504
2018-06-28T10:03:56.984Z,17568
2018-06-28T10:04:57.531Z,17216
2018-06-28T10:05:57.495Z,16640
2018-06-28T10:06:57.753Z,15596
2018-06-28T10:07:57.235Z,14348
2018-06-28T10:08:57.501Z,15132
2018-06-28T10:09:57.234Z,16672
2018-06-28T10:10:56.982Z,16768
2018-06-28T10:11:57.502Z,16004
2018-06-28T10:12:57.240Z,14364
2018-06-28T10:13:57.241Z,13644
2018-06-28T10:14:57.759Z,14168
2018-06-28T10:15:57.500Z,14104
2018-06-28T10:16:57.501Z,12952
2018-06-28T10:17:57.500Z,10484
2018-06-28T10:18:57.251Z,8568
2018-06-28T10:19:57.248Z,10188
2018-06-28T10:20:56.987Z,13232
2018-06-28T10:21:56.985Z,14328
2018-06-28T10:22:57.517Z,13580
2018-06-28T10:23:57.526Z,12804
2018-06-28T10:24:57.273Z,13412
2018-06-28T10:25:57.503Z,13624
2018-06-28T10:26:56.986Z,13724
2018-06-28T10:27:57.505Z,13920
2018-06-28T10:28:57.509Z,14188
2018-06-28T10:29:57.499Z,14276
2018-06-28T10:30:57.505Z,14064
2018-06-28T10:31:56.986Z,13568
2018-06-28T10:32:57.420Z,13864
2018-06-28T10:33:57.512Z,13716
2018-06-28T10:34:57.507Z,13160
2018-06-28T10:35:57.501Z,12680
2018-06-28T10:36:57.505Z,12644
2018-06-28T10:37:57.503Z,12228
2018-06-28T10:38:57.244Z,11232
2018-06-28T10:39:57.504Z,11520
2018-06-28T10:40:57.642Z,12408
2018-06-28T10:41:57.514Z,12464
2018-06-28T10:42:57.503Z,11760
2018-06-28T10:43:57.252Z,11000
2018-06-28T10:44:56.987Z,10888
2018-06-28T10:45:57.513Z,9852
2018-06-28T10:46:57.520Z,8352
2018-06-28T10:47:57.299Z,6756
2018-06-28T10:48:57.510Z,5148
2018-06-28T10:49:57.247Z,4264
2018-06-28T10:50:56.996Z,4148
2018-06-28T10:51:57.250Z,4944
2018-06-28T10:52:56.984Z,5860
2018-06-28T10:53:57.584Z,8512
2018-06-28T10:54:57.260Z,7808
2018-06-28T10:55:57.503Z,6888
2018-06-28T10:56:57.261Z,8344
2018-06-28T10:57:57.505Z,9024
2018-06-28T10:58:57.247Z,8736
2018-06-28T10:59:57.504Z,8108
2018-06-28T11:00:57.244Z,7560
2018-06-28T11:01:57.665Z,6948
2018-06-28T11:02:57.242Z,7660
2018-06-28T11:03:57.251Z,10816
2018-06-28T11:04:57.249Z,13504
2018-06-28T11:05:57.247Z,14424
2018-06-28T11:06:57.239Z,15652
2018-06-28T11:07:57.504Z,17056
2018-06-28T11:08:57.513Z,16768
2018-06-28T11:09:57.529Z,14588
2018-06-28T11:10:57.239Z,14548
2018-06-28T11:11:57.238Z,15068
2018-06-28T11:12:57.506Z,16736
2018-06-28T11:13:57.499Z,17696
2018-06-28T11:14:57.244Z,17888
2018-06-28T11:15:57.247Z,16608
2018-06-28T11:16:57.504Z,14556
2018-06-28T11:17:57.248Z,15916
2018-06-28T11:18:57.496Z,17376
2018-06-28T11:19:57.500Z,17312
2018-06-28T11:20:57.241Z,16960
2018-06-28T11:21:56.983Z,15052
2018-06-28T11:22:57.507Z,11152
2018-06-28T11:23:56.982Z,7204
2018-06-28T11:24:57.000Z,5960
2018-06-28T11:25:57.499Z,9496
2018-06-28T11:26:57.243Z,10720
2018-06-28T11:27:57.245Z,7040
2018-06-28T11:28:57.508Z,7024
2018-06-28T11:29:57.514Z,9816
2018-06-28T11:30:57.250Z,11624
2018-06-28T11:31:57.509Z,11936
2018-06-28T11:32:56.984Z,11932
2018-06-28T11:33:57.245Z,14988
2018-06-28T11:34:57.505Z,14624
2018-06-28T11:35:57.502Z,14544
2018-06-28T11:36:57.259Z,15192
2018-06-28T11:37:57.511Z,16384
2018-06-28T11:38:57.502Z,18144
2018-06-28T11:39:57.247Z,18816
2018-06-28T11:40:57.526Z,18112
2018-06-28T11:41:57.244Z,18176
2018-06-28T11:42:57.507Z,18624
2018-06-28T11:43:57.248Z,19936
2018-06-28T11:44:57.509Z,20224
2018-06-28T11:45:57.514Z,19424
2018-06-28T11:46:57.512Z,17056
2018-06-28T11:47:57.509Z,13716
2018-06-28T11:48:57.506Z,11752
2018-06-28T11:49:57.504Z,9456
2018-06-28T11:50:57.509Z,8400
2018-06-28T11:51:56.996Z,11528
2018-06-28T11:52:57.257Z,13308
2018-06-28T11:53:57.513Z,14688
2018-06-28T11:54:57.516Z,15452
2018-06-28T11:55:57.517Z,14616
2018-06-28T11:56:57.519Z,14468
2018-06-28T11:57:57.262Z,15000
2018-06-28T11:58:57.533Z,13944
2018-06-28T11:59:57.261Z,12160
2018-06-28T12:00:57.517Z,12272
2018-06-28T12:01:57.261Z,12284
2018-06-28T12:02:57.521Z,12888
2018-06-28T12:03:57.266Z,13688
2018-06-28T12:04:57.530Z,13376
2018-06-28T12:05:57.528Z,11268
2018-06-28T12:06:57.007Z,8280
2018-06-28T12:07:57.527Z,6884
2018-06-28T12:08:57.529Z,7132
2018-06-28T12:09:57.549Z,9044
2018-06-28T12:10:57.529Z,10184
2018-06-28T12:11:57.534Z,11288
2018-06-28T12:12:57.535Z,12008
2018-06-28T12:13:57.540Z,11340
2018-06-28T12:14:57.279Z,10880
2018-06-28T12:15:57.277Z,10412
2018-06-28T12:16:57.279Z,9480
2018-06-28T12:17:57.532Z,8804
2018-06-28T12:18:57.529Z,8632
2018-06-28T12:19:57.278Z,8592
2018-06-28T12:20:57.536Z,8268
2018-06-28T12:21:57.529Z,7628
2018-06-28T12:22:57.019Z,7124
2018-06-28T12:23:57.549Z,6812
2018-06-28T12:24:57.277Z,6856
2018-06-28T12:25:57.538Z,7276
2018-06-28T12:26:57.534Z,7716
2018-06-28T12:27:57.280Z,8048
2018-06-28T12:28:57.276Z,8388
2018-06-28T12:29:57.283Z,8884
2018-06-28T12:30:57.285Z,9952
2018-06-28T12:31:57.555Z,10464
2018-06-28T12:32:57.277Z,9752
2018-06-28T12:33:57.275Z,8720
2018-06-28T12:34:57.537Z,7628
2018-06-28T12:35:57.537Z,7344
2018-06-28T12:36:57.539Z,9080
2018-06-28T12:37:57.537Z,10892
2018-06-28T12:38:57.537Z,11928
2018-06-28T12:39:57.534Z,12612
2018-06-28T12:40:57.535Z,13088
2018-06-28T12:41:57.539Z,13336
2018-06-28T12:42:57.531Z,13632
2018-06-28T12:43:57.527Z,14252
2018-06-28T12:44:57.541Z,14652
2018-06-28T12:45:57.272Z,14772
2018-06-28T12:46:57.268Z,14724
2018-06-28T12:47:57.529Z,14252
2018-06-28T12:48:57.528Z,13772
2018-06-28T12:49:57.272Z,13552
2018-06-28T12:50:57.531Z,13356
2018-06-28T12:51:57.544Z,12988
2018-06-28T12:52:57.534Z,12360
2018-06-28T12:53:57.267Z,12024
2018-06-28T12:54:57.270Z,12092
2018-06-28T12:55:57.532Z,11652
2018-06-28T12:56:57.526Z,11212
2018-06-28T12:57:57.267Z,10868
2018-06-28T12:58:57.526Z,10608
2018-06-28T12:59:57.838Z,10444
2018-06-28T13:00:57.271Z,10328
2018-06-28T13:01:57.530Z,10052
2018-06-28T13:02:57.518Z,9728
2018-06-28T13:03:57.259Z,9372
2018-06-28T13:04:57.519Z,9044
2018-06-28T13:05:57.514Z,8808
2018-06-28T13:06:57.515Z,8696
2018-06-28T13:07:57.306Z,8660
2018-06-28T13:08:57.260Z,8580
2018-06-28T13:09:57.253Z,8408
2018-06-28T13:10:57.521Z,8092
2018-06-28T13:11:57.257Z,7780
2018-06-28T13:12:57.293Z,7684
2018-06-28T13:13:57.504Z,7760
2018-06-28T13:14:57.502Z,7844
2018-06-28T13:15:57.502Z,7760
2018-06-28T13:16:57.494Z,7472
2018-06-28T13:17:57.499Z,7124
2018-06-28T13:18:57.704Z,6696
2018-06-28T13:19:57.336Z,6352
2018-06-28T13:20:57.497Z,6200
2018-06-28T13:21:57.499Z,6012
2018-06-28T13:22:57.492Z,5756
2018-06-28T13:23:57.240Z,5660
2018-06-28T13:24:57.647Z,5580
2018-06-28T13:25:57.490Z,5584